Smit Tyee — VG9196 — position and weather

sailwx.info

Track history (hours):
 
Tides and Currents Weather Stations Pressure Air Temp Water Temp Dewpoint Dewpoint Depression Visibility Wind Speed Wind Dir Waves Ship Positions

Smit Tyee

Last reported at 2017-Oct-16 22:05 UTC. Time now 2017-Oct-17 10:01 UTC.
Position N 49°01' W 123°09'.

Length 12 m; draft 2.1 m.

Type: Tug. MMSI: 316009842.

Date/timePositionNaut miles runAvg speedWind from/ knotsBaromVisibWave heightAir tempDewpointWater temp
2017-Oct-16 22:05N 49°01' W 123°09'0 0.1
2017-Oct-16 22:00N 49°01' W 123°09'0 0.0
2017-Oct-16 21:30N 49°01' W 123°09'0 0.1
2017-Oct-16 21:00N 49°01' W 123°09'1 1.6
2017-Oct-16 20:30N 49°01' W 123°09'1 0.2
2017-Oct-16 17:04N 49°01' W 123°09'0 4.9
2017-Oct-16 17:00N 49°01' W 123°09'0 0.1
2017-Oct-16 16:30N 49°01' W 123°09'0 0.0
2017-Oct-16 15:59N 49°01' W 123°09'0 0.0
2017-Oct-16 15:30N 49°01' W 123°09'0 0.0
2017-Oct-16 14:59N 49°01' W 123°09'1 1.6
2017-Oct-16 14:29N 49°01' W 123°09'1 0.8
2017-Oct-16 13:29N 49°01' W 123°09'0 0.0
2017-Oct-16 13:00N 49°01' W 123°09'0 0.0
2017-Oct-16 12:30N 49°01' W 123°09'0 0.0
2017-Oct-16 11:57N 49°01' W 123°09'0 0.0
2017-Oct-16 11:24N 49°01' W 123°09'2 5.0
2017-Oct-16 11:00N 49°01' W 123°12'4 7.5
2017-Oct-16 10:30N 49°03' W 123°17'3 6.6
2017-Oct-16 10:00N 49°06' W 123°18'4 7.8
2017-Oct-16 09:31N 49°08' W 123°13'5 9.3
2017-Oct-16 09:00N 49°07' W 123°06'5 9.6
2017-Oct-16 08:31N 49°09' W 122°60'4 6.8
2017-Oct-16 07:59N 49°12' W 122°56'0 0.9
2017-Oct-16 07:29N 49°12' W 122°56'2 3.5
2017-Oct-16 07:01N 49°10' W 122°56'2 4.9
2017-Oct-16 06:31N 49°09' W 122°59'2 4.9
2017-Oct-16 06:01N 49°09' W 123°03'2 4.2
2017-Oct-16 05:31N 49°07' W 123°05'2 4.0
2017-Oct-16 05:00N 49°06' W 123°08'2 3.7
2017-Oct-16 04:30N 49°07' W 123°11'2 4.1
2017-Oct-16 03:55N 49°08' W 123°14'2 4.5
2017-Oct-16 03:29N 49°07' W 123°17'2 5.1
2017-Oct-16 03:00N 49°05' W 123°19'3 6.7
2017-Oct-16 02:31N 49°02' W 123°16'3 6.4
2017-Oct-16 02:00N 49°01' W 123°11'2 3.7
2017-Oct-16 01:31N 49°01' W 123°09'1 1.2
2017-Oct-16 00:58N 49°01' W 123°09'0 0.1
2017-Oct-16 00:26N 49°01' W 123°09'0 0.0
2017-Oct-15 23:47N 49°01' W 123°09'0 0.0
2017-Oct-15 23:23N 49°01' W 123°09'0 0.1
2017-Oct-15 22:59N 49°01' W 123°09'0 0.1
2017-Oct-15 22:22N 49°01' W 123°09'0 0.0
2017-Oct-15 21:08N 49°01' W 123°09'0 0.0
2017-Oct-15 20:59N 49°01' W 123°09'0 0.2
2017-Oct-15 20:19N 49°01' W 123°09'0 0.0
2017-Oct-15 20:00N 49°01' W 123°09'0 0.2
2017-Oct-15 19:30N 49°01' W 123°09'0 0.1
2017-Oct-15 19:00N 49°01' W 123°09'0 0.1
2017-Oct-15 18:30N 49°01' W 123°09'0 0.4
2017-Oct-15 18:01N 49°01' W 123°09'0 0.1
2017-Oct-15 17:12N 49°01' W 123°09'0 2.1
2017-Oct-15 17:01N 49°01' W 123°09'0 0.5
2017-Oct-15 16:22N 49°01' W 123°09'0 0.1
2017-Oct-15 16:01N 49°01' W 123°09'0 0.2
2017-Oct-15 15:30N 49°02' W 123°09'0 0.0
2017-Oct-15 15:00N 49°02' W 123°09'1 1.2
2017-Oct-15 13:55N 49°00' W 123°10'0 0.3
2017-Oct-15 13:30N 49°01' W 123°10'1 1.4
2017-Oct-15 13:01N 49°00' W 123°09'1 1.6
2017-Oct-15 12:26N 49°00' W 123°08'2 3.4
2017-Oct-15 11:55N 49°01' W 123°10'0 0.3
2017-Oct-15 11:30N 49°01' W 123°10'1 1.8
2017-Oct-15 11:00N 49°01' W 123°12'2 3.5
2017-Oct-15 10:30N 49°01' W 123°14'2 3.5
2017-Oct-15 09:59N 49°03' W 123°16'2 3.9
2017-Oct-15 09:30N 49°04' W 123°18'2 4.4
2017-Oct-15 09:00N 49°06' W 123°18'4 7.6
2017-Oct-15 08:31N 49°08' W 123°13'4 7.9
2017-Oct-15 08:01N 49°07' W 123°07'4 7.9
2017-Oct-15 07:30N 49°09' W 123°02'4 7.8
2017-Oct-15 06:59N 49°10' W 122°56'2 3.6
2017-Oct-15 06:28N 49°12' W 122°57'2 4.4
2017-Oct-15 06:00N 49°13' W 122°54'3 6.9
2017-Oct-15 05:30N 49°13' W 122°49'1 1.5
2017-Oct-15 04:57N 49°13' W 122°50'1 2.4
2017-Oct-15 04:30N 49°13' W 122°51'1 2.3
2017-Oct-15 04:01N 49°13' W 122°53'1 2.2
2017-Oct-15 03:31N 49°12' W 122°54'1 2.4
2017-Oct-15 03:00N 49°11' W 122°55'1 2.5
2017-Oct-15 02:31N 49°10' W 122°56'1 2.7
2017-Oct-15 02:00N 49°09' W 122°58'1 1.6
2017-Oct-15 01:31N 49°09' W 122°57'2 3.5
2017-Oct-15 00:57N 49°11' W 122°58'3 7.0
2017-Oct-15 00:30N 49°12' W 123°02'1 2.3
2017-Oct-15 00:00N 49°12' W 123°04'0 0.0
2017-Oct-14 23:30N 49°12' W 123°04'0 0.0
2017-Oct-14 23:00N 49°12' W 123°04'0 0.0
2017-Oct-14 22:30N 49°12' W 123°04'0 0.0
2017-Oct-14 22:01N 49°12' W 123°04'0 0.0
2017-Oct-14 21:30N 49°12' W 123°04'0 0.0
2017-Oct-14 21:00N 49°12' W 123°04'0 0.0
2017-Oct-14 20:31N 49°12' W 123°04'0 0.0
2017-Oct-14 20:01N 49°12' W 123°04'0 0.0
2017-Oct-14 19:30N 49°12' W 123°04'0 0.0
2017-Oct-14 19:00N 49°12' W 123°04'0 0.0
2017-Oct-14 18:30N 49°12' W 123°04'0 0.0
2017-Oct-14 18:00N 49°12' W 123°04'0 0.0
2017-Oct-14 17:30N 49°12' W 123°04'0 0.0
2017-Oct-14 17:00N 49°12' W 123°04'0 0.0
2017-Oct-14 16:30N 49°12' W 123°04'0 0.0
2017-Oct-14 16:00N 49°12' W 123°04'0 0.0
2017-Oct-14 15:30N 49°12' W 123°04'0 0.0
2017-Oct-14 15:00N 49°12' W 123°04'0 0.0
2017-Oct-14 14:30N 49°12' W 123°04'0 0.0
2017-Oct-14 14:00N 49°12' W 123°04'0 0.0
2017-Oct-14 13:30N 49°12' W 123°04'0 0.0
2017-Oct-14 12:59N 49°12' W 123°04'0 0.0
2017-Oct-14 12:30N 49°12' W 123°04'0 0.0
2017-Oct-14 12:00N 49°12' W 123°04'0 0.0
2017-Oct-14 11:30N 49°12' W 123°04'0 0.0
2017-Oct-14 11:00N 49°12' W 123°04'0 0.0
2017-Oct-14 10:30N 49°12' W 123°04'0 0.0
2017-Oct-14 10:00N 49°12' W 123°04'0 0.0
2017-Oct-14 09:30N 49°12' W 123°04'0 0.0
2017-Oct-14 09:00N 49°12' W 123°04'0 0.0
2017-Oct-14 08:30N 49°12' W 123°04'0 0.0
2017-Oct-14 08:00N 49°12' W 123°04'0 0.0
2017-Oct-14 07:30N 49°12' W 123°04'0 0.0
2017-Oct-14 07:00N 49°12' W 123°04'0 0.0
2017-Oct-14 06:30N 49°12' W 123°04'0 0.0
2017-Oct-14 06:00N 49°12' W 123°04'0 0.0
2017-Oct-14 05:30N 49°12' W 123°04'0 0.0
2017-Oct-14 05:00N 49°12' W 123°04'0 0.0
2017-Oct-14 04:30N 49°12' W 123°04'0 0.0
2017-Oct-14 04:00N 49°12' W 123°04'0 0.0
2017-Oct-14 03:30N 49°12' W 123°04'0 0.0
2017-Oct-14 03:00N 49°12' W 123°04'0 0.0
2017-Oct-14 02:30N 49°12' W 123°04'0 0.0
2017-Oct-14 02:00N 49°12' W 123°04'2 5.0
2017-Oct-14 01:30N 49°12' W 123°08'4 7.3
2017-Oct-14 01:00N 49°13' W 123°13'3 6.4
2017-Oct-14 00:30N 49°15' W 123°17'4 8.3
2017-Oct-14 00:00N 49°11' W 123°18'4 6.7
2017-Oct-13 23:29N 49°08' W 123°18'3 5.4
2017-Oct-13 23:00N 49°05' W 123°19'4 7.5
2017-Oct-13 22:30N 49°02' W 123°15'4 8.0
2017-Oct-13 22:00N 49°01' W 123°09'1 2.0
2017-Oct-13 21:30N 49°01' W 123°09'1 2.5
2017-Oct-13 21:00N 49°01' W 123°10'0 0.1
2017-Oct-13 20:30N 49°01' W 123°10'0 0.0
2017-Oct-13 20:00N 49°01' W 123°10'0 0.0
2017-Oct-13 19:30N 49°01' W 123°10'0 0.0
2017-Oct-13 18:59N 49°01' W 123°10'0 0.0
2017-Oct-13 18:30N 49°01' W 123°10'0 0.0
2017-Oct-13 18:00N 49°01' W 123°10'0 0.0
2017-Oct-13 17:30N 49°01' W 123°10'0 0.0
2017-Oct-13 17:00N 49°01' W 123°10'0 0.0
2017-Oct-13 16:30N 49°01' W 123°10'0 0.0
2017-Oct-13 16:00N 49°01' W 123°10'0 0.0
2017-Oct-13 15:30N 49°01' W 123°10'0 0.0
2017-Oct-13 15:00N 49°01' W 123°10'0 0.0
2017-Oct-13 14:29N 49°01' W 123°10'0 0.0
2017-Oct-13 14:00N 49°01' W 123°10'1 2.3
2017-Oct-13 13:30N 49°01' W 123°09'0 0.3
2017-Oct-13 13:00N 49°02' W 123°09'0 0.0
2017-Oct-13 12:30N 49°01' W 123°09'0 0.0
2017-Oct-13 12:00N 49°01' W 123°09'0 0.0
2017-Oct-13 11:30N 49°01' W 123°09'0 0.1
2017-Oct-13 11:00N 49°01' W 123°09'0 0.0
2017-Oct-13 10:30N 49°01' W 123°09'0 0.0
2017-Oct-13 10:00N 49°01' W 123°09'0 0.1
2017-Oct-13 09:30N 49°01' W 123°09'0 0.0
2017-Oct-13 09:00N 49°01' W 123°09'0 0.0
2017-Oct-13 08:30N 49°01' W 123°09'0 0.0
2017-Oct-13 07:59N 49°01' W 123°09'0 0.0
2017-Oct-13 06:37N 49°01' W 123°09'0 0.4
2017-Oct-13 06:30N 49°01' W 123°09'0 0.1
2017-Oct-13 06:00N 49°01' W 123°09'0 0.0
2017-Oct-13 05:27N 49°01' W 123°09'0 0.0
2017-Oct-13 04:59N 49°01' W 123°09'0 0.1
2017-Oct-13 04:29N 49°01' W 123°09'0 0.0
2017-Oct-13 03:26N 49°01' W 123°09'0 0.1
2017-Oct-13 02:52N 49°01' W 123°09'0 0.0
2017-Oct-13 02:30N 49°01' W 123°09'0 0.0
2017-Oct-13 01:59N 49°01' W 123°09'0 0.0
2017-Oct-13 01:30N 49°01' W 123°09'0 0.5
2017-Oct-13 00:59N 49°01' W 123°09'1 2.1
2017-Oct-13 00:31N 49°01' W 123°10'0 0.0
2017-Oct-13 00:01N 49°01' W 123°10'0 0.0
2017-Oct-12 23:29N 49°01' W 123°10'0 0.0
2017-Oct-12 23:01N 49°01' W 123°10'0 0.0
2017-Oct-12 22:31N 49°01' W 123°10'0 0.0
2017-Oct-12 22:00N 49°01' W 123°10'0 0.0
2017-Oct-12 21:31N 49°01' W 123°10'0 0.1
2017-Oct-12 21:00N 49°01' W 123°10'0 0.1
2017-Oct-12 20:28N 49°01' W 123°10'0 0.1
2017-Oct-12 20:00N 49°01' W 123°10'0 0.0
2017-Oct-12 19:31N 49°01' W 123°10'0 0.1
2017-Oct-12 19:00N 49°01' W 123°10'0 0.0
2017-Oct-12 18:26N 49°01' W 123°10'0 0.0
2017-Oct-12 18:00N 49°01' W 123°10'0 0.0
2017-Oct-12 17:29N 49°01' W 123°10'0 0.0
2017-Oct-12 17:00N 49°01' W 123°10'0 0.0
2017-Oct-12 16:30N 49°01' W 123°10'0 0.0
2017-Oct-12 16:01N 49°01' W 123°10'0 0.1
2017-Oct-12 15:30N 49°01' W 123°10'0 0.0
2017-Oct-12 15:00N 49°01' W 123°10'1 1.3
2017-Oct-12 14:27N 49°01' W 123°09'0 1.1
2017-Oct-12 14:00N 49°01' W 123°09'0 0.0
2017-Oct-12 13:23N 49°01' W 123°09'0 0.0
2017-Oct-12 12:54N 49°01' W 123°09'0 0.0
2017-Oct-12 12:30N 49°01' W 123°09'0 0.0
2017-Oct-12 12:00N 49°01' W 123°09'0 0.1
2017-Oct-12 11:30N 49°01' W 123°09'0 0.1
2017-Oct-12 11:00N 49°01' W 123°09'0 0.1
2017-Oct-12 10:30N 49°01' W 123°09'0 0.0
2017-Oct-12 09:56N 49°01' W 123°09'0 0.1
2017-Oct-12 09:23N 49°01' W 123°09'0 0.0
2017-Oct-12 08:56N 49°01' W 123°09'0 0.0
2017-Oct-12 08:30N 49°01' W 123°09'0 0.0
2017-Oct-12 08:00N 49°01' W 123°09'0 0.0
2017-Oct-12 07:30N 49°01' W 123°09'0 0.0
2017-Oct-12 07:00N 49°01' W 123°09'0 0.1
2017-Oct-12 06:30N 49°01' W 123°09'0 0.1
2017-Oct-12 06:00N 49°01' W 123°09'0 0.1
2017-Oct-12 05:30N 49°01' W 123°09'0 0.1
2017-Oct-12 05:00N 49°01' W 123°09'0 0.1
2017-Oct-12 04:30N 49°01' W 123°09'0 0.1
2017-Oct-12 04:00N 49°01' W 123°09'0 0.0
2017-Oct-12 03:29N 49°01' W 123°09'0 0.1
2017-Oct-12 03:00N 49°01' W 123°09'0 0.1
2017-Oct-12 02:30N 49°01' W 123°09'0 0.0
2017-Oct-12 01:59N 49°01' W 123°09'0 0.0
2017-Oct-12 01:28N 49°01' W 123°09'0 0.0
2017-Oct-12 01:00N 49°02' W 123°09'1 2.1
2017-Oct-12 00:25N 49°01' W 123°10'0 0.2
2017-Oct-12 00:01N 49°01' W 123°10'0 0.0
2017-Oct-11 23:30N 49°01' W 123°10'0 0.0
2017-Oct-11 23:00N 49°01' W 123°10'0 0.0
2017-Oct-11 22:31N 49°01' W 123°10'0 0.0
2017-Oct-11 21:59N 49°01' W 123°10'0 0.0
2017-Oct-11 21:30N 49°01' W 123°10'0 0.0
2017-Oct-11 21:01N 49°01' W 123°10'0 0.0
2017-Oct-11 20:30N 49°01' W 123°10'0 0.0
2017-Oct-11 20:00N 49°01' W 123°10'0 0.0
2017-Oct-11 19:31N 49°01' W 123°10'0 0.0
2017-Oct-11 19:00N 49°01' W 123°10'0 0.0
2017-Oct-11 18:30N 49°01' W 123°10'0 0.0
2017-Oct-11 17:57N 49°01' W 123°10'0 0.0
2017-Oct-11 17:30N 49°01' W 123°10'0 0.0
2017-Oct-11 17:00N 49°01' W 123°10'12 0.7
2017-Oct-11 00:00N 49°12' W 123°04'0 0.0
2017-Oct-10 23:30N 49°12' W 123°04'0 0.0
2017-Oct-10 23:00N 49°12' W 123°04'0 0.0
2017-Oct-10 22:30N 49°12' W 123°04'0 0.0
2017-Oct-10 22:00N 49°12' W 123°04'0 0.0
2017-Oct-10 21:30N 49°12' W 123°04'0 0.0
2017-Oct-10 21:00N 49°12' W 123°04'0 0.0
2017-Oct-10 20:30N 49°12' W 123°04'0 0.0
2017-Oct-10 20:00N 49°12' W 123°04'0 0.0
2017-Oct-10 19:30N 49°12' W 123°04'0 0.0
2017-Oct-10 19:00N 49°12' W 123°04'0 0.0
2017-Oct-10 18:30N 49°12' W 123°04'0 0.2
2017-Oct-10 18:00N 49°12' W 123°04'0 0.1
2017-Oct-10 17:30N 49°12' W 123°04'3 5.3
2017-Oct-10 17:00N 49°12' W 123°08'3 5.9
2017-Oct-10 16:30N 49°13' W 123°12'4 8.0
2017-Oct-10 16:00N 49°16' W 123°17'3 6.6
2017-Oct-10 15:30N 49°17' W 123°22'3 6.5
2017-Oct-10 15:00N 49°19' W 123°25'6 6.3
2017-Oct-10 14:00N 49°26' W 123°27'3 7.0
2017-Oct-10 13:30N 49°29' W 123°28'2 3.2
2017-Oct-10 13:00N 49°30' W 123°30'0 0.0
2017-Oct-10 12:30N 49°30' W 123°30'0 0.1
2017-Oct-10 12:00N 49°30' W 123°30'0 0.0
2017-Oct-10 11:29N 49°30' W 123°30'0 0.0
2017-Oct-10 11:00N 49°30' W 123°30'0 0.1
2017-Oct-10 10:30N 49°30' W 123°30'0 0.4
2017-Oct-10 10:00N 49°30' W 123°29'2 3.8
2017-Oct-10 09:30N 49°28' W 123°28'3 6.4
2017-Oct-10 09:00N 49°25' W 123°27'3 5.7
2017-Oct-10 08:30N 49°23' W 123°26'3 6.3
2017-Oct-10 08:00N 49°19' W 123°26'4 7.3
2017-Oct-10 07:30N 49°18' W 123°21'4 7.4
2017-Oct-10 07:00N 49°15' W 123°16'3 6.9
2017-Oct-10 06:30N 49°13' W 123°12'3 5.3
2017-Oct-10 06:00N 49°12' W 123°09'3 5.1
2017-Oct-10 05:30N 49°12' W 123°05'1 1.0
2017-Oct-10 05:00N 49°12' W 123°04'0 0.0
2017-Oct-10 04:30N 49°12' W 123°04'0 0.0
2017-Oct-10 04:00N 49°12' W 123°04'0 0.0
2017-Oct-10 03:30N 49°12' W 123°04'0 0.0
2017-Oct-10 03:00N 49°12' W 123°04'0 0.0
2017-Oct-10 02:30N 49°12' W 123°04'0 0.0
2017-Oct-10 02:00N 49°12' W 123°04'0 0.0
2017-Oct-10 01:30N 49°12' W 123°04'0 0.0
2017-Oct-10 01:00N 49°12' W 123°04'0 0.0
2017-Oct-10 00:30N 49°12' W 123°04'0 0.0
2017-Oct-10 00:00N 49°12' W 123°04'0 0.0
2017-Oct-09 23:30N 49°12' W 123°04'0 0.0
2017-Oct-09 23:00N 49°12' W 123°04'0 0.0
2017-Oct-09 22:30N 49°12' W 123°04'0 0.0
2017-Oct-09 22:00N 49°12' W 123°04'0 0.0
2017-Oct-09 21:30N 49°12' W 123°04'0 0.0
2017-Oct-09 21:00N 49°12' W 123°04'0 0.0
2017-Oct-09 20:30N 49°12' W 123°04'0 0.0
2017-Oct-09 20:00N 49°12' W 123°04'0 0.0
2017-Oct-09 19:30N 49°12' W 123°04'0 0.0
2017-Oct-09 19:00N 49°12' W 123°04'0 0.0
2017-Oct-09 18:30N 49°12' W 123°04'0 0.0
2017-Oct-09 18:00N 49°12' W 123°04'0 0.0
2017-Oct-09 17:30N 49°12' W 123°04'0 0.0
2017-Oct-09 17:00N 49°12' W 123°04'0 0.0
2017-Oct-09 16:30N 49°12' W 123°04'0 0.0
2017-Oct-09 16:00N 49°12' W 123°04'0 0.0
2017-Oct-09 15:30N 49°12' W 123°04'0 0.0
2017-Oct-09 15:00N 49°12' W 123°04'0 0.0
2017-Oct-09 14:30N 49°12' W 123°04'0 0.0
2017-Oct-09 14:00N 49°12' W 123°04'0 0.0
2017-Oct-09 13:30N 49°12' W 123°04'0 0.0
2017-Oct-09 13:00N 49°12' W 123°04'0 0.0
2017-Oct-09 12:30N 49°12' W 123°04'0 0.0
2017-Oct-09 12:00N 49°12' W 123°04'0 0.0
2017-Oct-09 11:30N 49°12' W 123°04'0 0.0
2017-Oct-09 11:00N 49°12' W 123°04'0 0.0
2017-Oct-09 10:30N 49°12' W 123°04'0 0.0
2017-Oct-09 10:00N 49°12' W 123°04'0 0.0
2017-Oct-09 09:30N 49°12' W 123°04'0 0.0
2017-Oct-09 09:00N 49°12' W 123°04'0 0.0
2017-Oct-09 08:30N 49°12' W 123°04'0 0.0
2017-Oct-09 08:00N 49°12' W 123°04'0 0.0
2017-Oct-09 07:30N 49°12' W 123°04'0 0.0
2017-Oct-09 07:00N 49°12' W 123°04'0 0.0
2017-Oct-09 06:30N 49°12' W 123°04'0 0.0
2017-Oct-09 06:00N 49°12' W 123°04'0 0.0
2017-Oct-09 05:30N 49°12' W 123°04'0 0.0
2017-Oct-09 05:00N 49°12' W 123°04'0 0.0
2017-Oct-09 04:30N 49°12' W 123°04'0 0.0
2017-Oct-09 04:00N 49°12' W 123°04'0 0.0
2017-Oct-09 03:30N 49°12' W 123°04'0 0.0
2017-Oct-09 03:00N 49°12' W 123°04'0 0.0
2017-Oct-09 02:30N 49°12' W 123°04'0 0.0
2017-Oct-09 02:00N 49°12' W 123°04'0 0.0
2017-Oct-09 01:30N 49°12' W 123°04'0 0.0
2017-Oct-09 01:00N 49°12' W 123°04'0 0.0
2017-Oct-09 00:30N 49°12' W 123°04'0 0.0
2017-Oct-09 00:00N 49°12' W 123°04'0 0.0
2017-Oct-08 23:30N 49°12' W 123°04'0 0.0
2017-Oct-08 23:00N 49°12' W 123°04'0 0.0
2017-Oct-08 22:30N 49°12' W 123°04'0 0.0
2017-Oct-08 22:00N 49°12' W 123°04'0 0.0
2017-Oct-08 21:30N 49°12' W 123°04'0 0.0
2017-Oct-08 21:00N 49°12' W 123°04'0 0.0
2017-Oct-08 20:30N 49°12' W 123°04'0 0.0
2017-Oct-08 20:00N 49°12' W 123°04'0 0.0
2017-Oct-08 19:30N 49°12' W 123°04'0 0.0
2017-Oct-08 19:00N 49°12' W 123°04'0 0.0
2017-Oct-08 18:30N 49°12' W 123°04'0 0.0
2017-Oct-08 18:00N 49°12' W 123°04'0 0.0
2017-Oct-08 17:30N 49°12' W 123°04'0 0.0
2017-Oct-08 17:00N 49°12' W 123°04'0 0.0
2017-Oct-08 16:30N 49°12' W 123°04'0 0.0
2017-Oct-08 16:00N 49°12' W 123°04'0 0.0
2017-Oct-08 15:30N 49°12' W 123°04'0 0.0
2017-Oct-08 15:00N 49°12' W 123°04'0 0.0
2017-Oct-08 14:30N 49°12' W 123°04'0 0.0
2017-Oct-08 14:00N 49°12' W 123°04'0 0.0
2017-Oct-08 13:30N 49°12' W 123°04'0 0.0
2017-Oct-08 13:00N 49°12' W 123°04'0 0.0
2017-Oct-08 12:30N 49°12' W 123°04'0 0.0
2017-Oct-08 12:00N 49°12' W 123°04'0 0.0
2017-Oct-08 11:30N 49°12' W 123°04'0 0.0
2017-Oct-08 11:00N 49°12' W 123°04'0 0.0
2017-Oct-08 10:30N 49°12' W 123°04'0 0.0
2017-Oct-08 10:00N 49°12' W 123°04'0 0.0
2017-Oct-08 09:30N 49°12' W 123°04'0 0.0
2017-Oct-08 09:00N 49°12' W 123°04'0 0.0
2017-Oct-08 08:30N 49°12' W 123°04'0 0.0
2017-Oct-08 08:00N 49°12' W 123°04'0 0.0
2017-Oct-08 07:30N 49°12' W 123°04'0 0.0
2017-Oct-08 07:00N 49°12' W 123°04'0 0.0
2017-Oct-08 06:30N 49°12' W 123°04'0 0.0
2017-Oct-08 06:00N 49°12' W 123°04'0 0.0
2017-Oct-08 05:30N 49°12' W 123°04'0 0.0
2017-Oct-08 05:00N 49°12' W 123°04'0 0.0
2017-Oct-08 04:30N 49°12' W 123°04'0 0.0
2017-Oct-08 04:00N 49°12' W 123°04'0 0.0
2017-Oct-08 03:30N 49°12' W 123°04'0 0.0
2017-Oct-08 03:00N 49°12' W 123°04'0 0.0
2017-Oct-08 02:30N 49°12' W 123°04'0 0.0
2017-Oct-08 02:00N 49°12' W 123°04'0 0.0
2017-Oct-08 01:30N 49°12' W 123°04'0 0.0
2017-Oct-08 01:00N 49°12' W 123°04'0 0.0
2017-Oct-08 00:30N 49°12' W 123°04'0 0.0
2017-Oct-08 00:00N 49°12' W 123°04'0 0.0
2017-Oct-07 23:30N 49°12' W 123°04'0 0.0
2017-Oct-07 23:00N 49°12' W 123°04'0 0.0
2017-Oct-07 22:30N 49°12' W 123°04'0 0.0
2017-Oct-07 22:00N 49°12' W 123°04'0 0.2
2017-Oct-07 21:30N 49°12' W 123°04'2 3.5
2017-Oct-07 21:00N 49°12' W 123°07'2 4.7
2017-Oct-07 20:30N 49°13' W 123°10'3 5.5
2017-Oct-07 20:00N 49°14' W 123°14'3 5.7
2017-Oct-07 19:30N 49°16' W 123°17'3 6.6
2017-Oct-07 19:00N 49°18' W 123°21'3 7.1
2017-Oct-07 18:30N 49°20' W 123°25'4 7.1
2017-Oct-07 18:00N 49°23' W 123°26'4 7.6
2017-Oct-07 17:30N 49°27' W 123°27'3 6.8
2017-Oct-07 17:00N 49°30' W 123°30'0 0.1
2017-Oct-07 16:30N 49°30' W 123°30'0 0.0
2017-Oct-07 16:00N 49°30' W 123°30'0 0.0
2017-Oct-07 15:30N 49°30' W 123°30'0 0.0
2017-Oct-07 15:00N 49°30' W 123°30'0 0.1
2017-Oct-07 14:30N 49°30' W 123°30'2 4.1
2017-Oct-07 14:00N 49°29' W 123°28'3 6.9
2017-Oct-07 13:30N 49°25' W 123°27'3 6.0
2017-Oct-07 13:00N 49°22' W 123°26'3 6.3
2017-Oct-07 12:30N 49°19' W 123°25'4 7.1
2017-Oct-07 12:00N 49°17' W 123°20'3 6.4
2017-Oct-07 11:30N 49°15' W 123°16'3 5.5
2017-Oct-07 11:00N 49°13' W 123°13'3 6.0
2017-Oct-07 10:30N 49°12' W 123°09'3 6.2
2017-Oct-07 10:00N 49°12' W 123°04'0 0.0
2017-Oct-07 09:30N 49°12' W 123°04'0 0.0
2017-Oct-07 09:00N 49°12' W 123°04'0 0.0
2017-Oct-07 08:30N 49°12' W 123°04'0 0.0
2017-Oct-07 08:00N 49°12' W 123°04'0 0.0
2017-Oct-07 07:30N 49°12' W 123°04'0 0.0
2017-Oct-07 07:00N 49°12' W 123°04'0 0.2
2017-Oct-07 06:30N 49°12' W 123°04'0 0.0
2017-Oct-07 06:00N 49°12' W 123°04'0 0.0
2017-Oct-07 05:30N 49°12' W 123°04'0 0.0
2017-Oct-07 05:00N 49°12' W 123°04'0 0.0
2017-Oct-07 04:30N 49°12' W 123°04'0 0.0
2017-Oct-07 04:00N 49°12' W 123°04'0 0.0
2017-Oct-07 03:30N 49°12' W 123°04'0 0.0
2017-Oct-07 03:00N 49°12' W 123°04'0 0.0
2017-Oct-07 02:30N 49°12' W 123°04'0 0.0
2017-Oct-07 02:00N 49°12' W 123°04'0 0.0
2017-Oct-07 01:30N 49°12' W 123°04'0 0.0
2017-Oct-07 01:00N 49°12' W 123°04'0 0.0
2017-Oct-07 00:30N 49°12' W 123°04'0 0.0
2017-Oct-07 00:00N 49°12' W 123°04'0 0.0
2017-Oct-06 23:30N 49°12' W 123°04'0 0.0
2017-Oct-06 23:00N 49°12' W 123°04'0 0.0
2017-Oct-06 22:30N 49°12' W 123°04'  
Track history (hours):
 
Tides and Currents Weather Stations Pressure Air Temp Water Temp Dewpoint Dewpoint Depression Visibility Wind Speed Wind Dir Waves Ship Positions

Smit Tyee

Last reported at 2017-Oct-16 22:05 UTC. Time now 2017-Oct-17 10:01 UTC.
Position N 49°01' W 123°09'.

Length 12 m; draft 2.1 m.

Type: Tug. MMSI: 316009842.

Date/timePositionNaut miles runAvg speedWind from/ knotsBaromVisibWave heightAir tempDewpointWater temp
2017-Oct-16 22:05N 49°01' W 123°09'0 0.1
2017-Oct-16 22:00N 49°01' W 123°09'0 0.0
2017-Oct-16 21:30N 49°01' W 123°09'0 0.1
2017-Oct-16 21:00N 49°01' W 123°09'1 1.6
2017-Oct-16 20:30N 49°01' W 123°09'1 0.2
2017-Oct-16 17:04N 49°01' W 123°09'0 4.9
2017-Oct-16 17:00N 49°01' W 123°09'0 0.1
2017-Oct-16 16:30N 49°01' W 123°09'0 0.0
2017-Oct-16 15:59N 49°01' W 123°09'0 0.0
2017-Oct-16 15:30N 49°01' W 123°09'0 0.0
2017-Oct-16 14:59N 49°01' W 123°09'1 1.6
2017-Oct-16 14:29N 49°01' W 123°09'1 0.8
2017-Oct-16 13:29N 49°01' W 123°09'0 0.0
2017-Oct-16 13:00N 49°01' W 123°09'0 0.0
2017-Oct-16 12:30N 49°01' W 123°09'0 0.0
2017-Oct-16 11:57N 49°01' W 123°09'0 0.0
2017-Oct-16 11:24N 49°01' W 123°09'2 5.0
2017-Oct-16 11:00N 49°01' W 123°12'4 7.5
2017-Oct-16 10:30N 49°03' W 123°17'3 6.6
2017-Oct-16 10:00N 49°06' W 123°18'4 7.8
2017-Oct-16 09:31N 49°08' W 123°13'5 9.3
2017-Oct-16 09:00N 49°07' W 123°06'5 9.6
2017-Oct-16 08:31N 49°09' W 122°60'4 6.8
2017-Oct-16 07:59N 49°12' W 122°56'0 0.9
2017-Oct-16 07:29N 49°12' W 122°56'2 3.5
2017-Oct-16 07:01N 49°10' W 122°56'2 4.9
2017-Oct-16 06:31N 49°09' W 122°59'2 4.9
2017-Oct-16 06:01N 49°09' W 123°03'2 4.2
2017-Oct-16 05:31N 49°07' W 123°05'2 4.0
2017-Oct-16 05:00N 49°06' W 123°08'2 3.7
2017-Oct-16 04:30N 49°07' W 123°11'2 4.1
2017-Oct-16 03:55N 49°08' W 123°14'2 4.5
2017-Oct-16 03:29N 49°07' W 123°17'2 5.1
2017-Oct-16 03:00N 49°05' W 123°19'3 6.7
2017-Oct-16 02:31N 49°02' W 123°16'3 6.4
2017-Oct-16 02:00N 49°01' W 123°11'2 3.7
2017-Oct-16 01:31N 49°01' W 123°09'1 1.2
2017-Oct-16 00:58N 49°01' W 123°09'0 0.1
2017-Oct-16 00:26N 49°01' W 123°09'0 0.0
2017-Oct-15 23:47N 49°01' W 123°09'0 0.0
2017-Oct-15 23:23N 49°01' W 123°09'0 0.1
2017-Oct-15 22:59N 49°01' W 123°09'0 0.1
2017-Oct-15 22:22N 49°01' W 123°09'0 0.0
2017-Oct-15 21:08N 49°01' W 123°09'0 0.0
2017-Oct-15 20:59N 49°01' W 123°09'0 0.2
2017-Oct-15 20:19N 49°01' W 123°09'0 0.0
2017-Oct-15 20:00N 49°01' W 123°09'0 0.2
2017-Oct-15 19:30N 49°01' W 123°09'0 0.1
2017-Oct-15 19:00N 49°01' W 123°09'0 0.1
2017-Oct-15 18:30N 49°01' W 123°09'0 0.4
2017-Oct-15 18:01N 49°01' W 123°09'0 0.1
2017-Oct-15 17:12N 49°01' W 123°09'0 2.1
2017-Oct-15 17:01N 49°01' W 123°09'0 0.5
2017-Oct-15 16:22N 49°01' W 123°09'0 0.1
2017-Oct-15 16:01N 49°01' W 123°09'0 0.2
2017-Oct-15 15:30N 49°02' W 123°09'0 0.0
2017-Oct-15 15:00N 49°02' W 123°09'1 1.2
2017-Oct-15 13:55N 49°00' W 123°10'0 0.3
2017-Oct-15 13:30N 49°01' W 123°10'1 1.4
2017-Oct-15 13:01N 49°00' W 123°09'1 1.6
2017-Oct-15 12:26N 49°00' W 123°08'2 3.4
2017-Oct-15 11:55N 49°01' W 123°10'0 0.3
2017-Oct-15 11:30N 49°01' W 123°10'1 1.8
2017-Oct-15 11:00N 49°01' W 123°12'2 3.5
2017-Oct-15 10:30N 49°01' W 123°14'2 3.5
2017-Oct-15 09:59N 49°03' W 123°16'2 3.9
2017-Oct-15 09:30N 49°04' W 123°18'2 4.4
2017-Oct-15 09:00N 49°06' W 123°18'4 7.6
2017-Oct-15 08:31N 49°08' W 123°13'4 7.9
2017-Oct-15 08:01N 49°07' W 123°07'4 7.9
2017-Oct-15 07:30N 49°09' W 123°02'4 7.8
2017-Oct-15 06:59N 49°10' W 122°56'2 3.6
2017-Oct-15 06:28N 49°12' W 122°57'2 4.4
2017-Oct-15 06:00N 49°13' W 122°54'3 6.9
2017-Oct-15 05:30N 49°13' W 122°49'1 1.5
2017-Oct-15 04:57N 49°13' W 122°50'1 2.4
2017-Oct-15 04:30N 49°13' W 122°51'1 2.3
2017-Oct-15 04:01N 49°13' W 122°53'1 2.2
2017-Oct-15 03:31N 49°12' W 122°54'1 2.4
2017-Oct-15 03:00N 49°11' W 122°55'1 2.5
2017-Oct-15 02:31N 49°10' W 122°56'1 2.7
2017-Oct-15 02:00N 49°09' W 122°58'1 1.6
2017-Oct-15 01:31N 49°09' W 122°57'2 3.5
2017-Oct-15 00:57N 49°11' W 122°58'3 7.0
2017-Oct-15 00:30N 49°12' W 123°02'1 2.3
2017-Oct-15 00:00N 49°12' W 123°04'0 0.0
2017-Oct-14 23:30N 49°12' W 123°04'0 0.0
2017-Oct-14 23:00N 49°12' W 123°04'0 0.0
2017-Oct-14 22:30N 49°12' W 123°04'0 0.0
2017-Oct-14 22:01N 49°12' W 123°04'0 0.0
2017-Oct-14 21:30N 49°12' W 123°04'0 0.0
2017-Oct-14 21:00N 49°12' W 123°04'0 0.0
2017-Oct-14 20:31N 49°12' W 123°04'0 0.0
2017-Oct-14 20:01N 49°12' W 123°04'0 0.0
2017-Oct-14 19:30N 49°12' W 123°04'0 0.0
2017-Oct-14 19:00N 49°12' W 123°04'0 0.0
2017-Oct-14 18:30N 49°12' W 123°04'0 0.0
2017-Oct-14 18:00N 49°12' W 123°04'0 0.0
2017-Oct-14 17:30N 49°12' W 123°04'0 0.0
2017-Oct-14 17:00N 49°12' W 123°04'0 0.0
2017-Oct-14 16:30N 49°12' W 123°04'0 0.0
2017-Oct-14 16:00N 49°12' W 123°04'0 0.0
2017-Oct-14 15:30N 49°12' W 123°04'0 0.0
2017-Oct-14 15:00N 49°12' W 123°04'0 0.0
2017-Oct-14 14:30N 49°12' W 123°04'0 0.0
2017-Oct-14 14:00N 49°12' W 123°04'0 0.0
2017-Oct-14 13:30N 49°12' W 123°04'0 0.0
2017-Oct-14 12:59N 49°12' W 123°04'0 0.0
2017-Oct-14 12:30N 49°12' W 123°04'0 0.0
2017-Oct-14 12:00N 49°12' W 123°04'0 0.0
2017-Oct-14 11:30N 49°12' W 123°04'0 0.0
2017-Oct-14 11:00N 49°12' W 123°04'0 0.0
2017-Oct-14 10:30N 49°12' W 123°04'0 0.0
2017-Oct-14 10:00N 49°12' W 123°04'0 0.0
2017-Oct-14 09:30N 49°12' W 123°04'0 0.0
2017-Oct-14 09:00N 49°12' W 123°04'0 0.0
2017-Oct-14 08:30N 49°12' W 123°04'0 0.0
2017-Oct-14 08:00N 49°12' W 123°04'0 0.0
2017-Oct-14 07:30N 49°12' W 123°04'0 0.0
2017-Oct-14 07:00N 49°12' W 123°04'0 0.0
2017-Oct-14 06:30N 49°12' W 123°04'0 0.0
2017-Oct-14 06:00N 49°12' W 123°04'0 0.0
2017-Oct-14 05:30N 49°12' W 123°04'0 0.0
2017-Oct-14 05:00N 49°12' W 123°04'0 0.0
2017-Oct-14 04:30N 49°12' W 123°04'0 0.0
2017-Oct-14 04:00N 49°12' W 123°04'0 0.0
2017-Oct-14 03:30N 49°12' W 123°04'0 0.0
2017-Oct-14 03:00N 49°12' W 123°04'0 0.0
2017-Oct-14 02:30N 49°12' W 123°04'0 0.0
2017-Oct-14 02:00N 49°12' W 123°04'2 5.0
2017-Oct-14 01:30N 49°12' W 123°08'4 7.3
2017-Oct-14 01:00N 49°13' W 123°13'3 6.4
2017-Oct-14 00:30N 49°15' W 123°17'4 8.3
2017-Oct-14 00:00N 49°11' W 123°18'4 6.7
2017-Oct-13 23:29N 49°08' W 123°18'3 5.4
2017-Oct-13 23:00N 49°05' W 123°19'4 7.5
2017-Oct-13 22:30N 49°02' W 123°15'4 8.0
2017-Oct-13 22:00N 49°01' W 123°09'1 2.0
2017-Oct-13 21:30N 49°01' W 123°09'1 2.5
2017-Oct-13 21:00N 49°01' W 123°10'0 0.1
2017-Oct-13 20:30N 49°01' W 123°10'0 0.0
2017-Oct-13 20:00N 49°01' W 123°10'0 0.0
2017-Oct-13 19:30N 49°01' W 123°10'0 0.0
2017-Oct-13 18:59N 49°01' W 123°10'0 0.0
2017-Oct-13 18:30N 49°01' W 123°10'0 0.0
2017-Oct-13 18:00N 49°01' W 123°10'0 0.0
2017-Oct-13 17:30N 49°01' W 123°10'0 0.0
2017-Oct-13 17:00N 49°01' W 123°10'0 0.0
2017-Oct-13 16:30N 49°01' W 123°10'0 0.0
2017-Oct-13 16:00N 49°01' W 123°10'0 0.0
2017-Oct-13 15:30N 49°01' W 123°10'0 0.0
2017-Oct-13 15:00N 49°01' W 123°10'0 0.0
2017-Oct-13 14:29N 49°01' W 123°10'0 0.0
2017-Oct-13 14:00N 49°01' W 123°10'1 2.3
2017-Oct-13 13:30N 49°01' W 123°09'0 0.3
2017-Oct-13 13:00N 49°02' W 123°09'0 0.0
2017-Oct-13 12:30N 49°01' W 123°09'0 0.0
2017-Oct-13 12:00N 49°01' W 123°09'0 0.0
2017-Oct-13 11:30N 49°01' W 123°09'0 0.1
2017-Oct-13 11:00N 49°01' W 123°09'0 0.0
2017-Oct-13 10:30N 49°01' W 123°09'0 0.0
2017-Oct-13 10:00N 49°01' W 123°09'0 0.1
2017-Oct-13 09:30N 49°01' W 123°09'0 0.0
2017-Oct-13 09:00N 49°01' W 123°09'0 0.0
2017-Oct-13 08:30N 49°01' W 123°09'0 0.0
2017-Oct-13 07:59N 49°01' W 123°09'0 0.0
2017-Oct-13 06:37N 49°01' W 123°09'0 0.4
2017-Oct-13 06:30N 49°01' W 123°09'0 0.1
2017-Oct-13 06:00N 49°01' W 123°09'0 0.0
2017-Oct-13 05:27N 49°01' W 123°09'0 0.0
2017-Oct-13 04:59N 49°01' W 123°09'0 0.1
2017-Oct-13 04:29N 49°01' W 123°09'0 0.0
2017-Oct-13 03:26N 49°01' W 123°09'0 0.1
2017-Oct-13 02:52N 49°01' W 123°09'0 0.0
2017-Oct-13 02:30N 49°01' W 123°09'0 0.0
2017-Oct-13 01:59N 49°01' W 123°09'0 0.0
2017-Oct-13 01:30N 49°01' W 123°09'0 0.5
2017-Oct-13 00:59N 49°01' W 123°09'1 2.1
2017-Oct-13 00:31N 49°01' W 123°10'0 0.0
2017-Oct-13 00:01N 49°01' W 123°10'0 0.0
2017-Oct-12 23:29N 49°01' W 123°10'0 0.0
2017-Oct-12 23:01N 49°01' W 123°10'0 0.0
2017-Oct-12 22:31N 49°01' W 123°10'0 0.0
2017-Oct-12 22:00N 49°01' W 123°10'0 0.0
2017-Oct-12 21:31N 49°01' W 123°10'0 0.1
2017-Oct-12 21:00N 49°01' W 123°10'0 0.1
2017-Oct-12 20:28N 49°01' W 123°10'0 0.1
2017-Oct-12 20:00N 49°01' W 123°10'0 0.0
2017-Oct-12 19:31N 49°01' W 123°10'0 0.1
2017-Oct-12 19:00N 49°01' W 123°10'0 0.0
2017-Oct-12 18:26N 49°01' W 123°10'0 0.0
2017-Oct-12 18:00N 49°01' W 123°10'0 0.0
2017-Oct-12 17:29N 49°01' W 123°10'0 0.0
2017-Oct-12 17:00N 49°01' W 123°10'0 0.0
2017-Oct-12 16:30N 49°01' W 123°10'0 0.0
2017-Oct-12 16:01N 49°01' W 123°10'0 0.1
2017-Oct-12 15:30N 49°01' W 123°10'0 0.0
2017-Oct-12 15:00N 49°01' W 123°10'1 1.3
2017-Oct-12 14:27N 49°01' W 123°09'0 1.1
2017-Oct-12 14:00N 49°01' W 123°09'0 0.0
2017-Oct-12 13:23N 49°01' W 123°09'0 0.0
2017-Oct-12 12:54N 49°01' W 123°09'0 0.0
2017-Oct-12 12:30N 49°01' W 123°09'0 0.0
2017-Oct-12 12:00N 49°01' W 123°09'0 0.1
2017-Oct-12 11:30N 49°01' W 123°09'0 0.1
2017-Oct-12 11:00N 49°01' W 123°09'0 0.1
2017-Oct-12 10:30N 49°01' W 123°09'0 0.0
2017-Oct-12 09:56N 49°01' W 123°09'0 0.1
2017-Oct-12 09:23N 49°01' W 123°09'0 0.0
2017-Oct-12 08:56N 49°01' W 123°09'0 0.0
2017-Oct-12 08:30N 49°01' W 123°09'0 0.0
2017-Oct-12 08:00N 49°01' W 123°09'0 0.0
2017-Oct-12 07:30N 49°01' W 123°09'0 0.0
2017-Oct-12 07:00N 49°01' W 123°09'0 0.1
2017-Oct-12 06:30N 49°01' W 123°09'0 0.1
2017-Oct-12 06:00N 49°01' W 123°09'0 0.1
2017-Oct-12 05:30N 49°01' W 123°09'0 0.1
2017-Oct-12 05:00N 49°01' W 123°09'0 0.1
2017-Oct-12 04:30N 49°01' W 123°09'0 0.1
2017-Oct-12 04:00N 49°01' W 123°09'0 0.0
2017-Oct-12 03:29N 49°01' W 123°09'0 0.1
2017-Oct-12 03:00N 49°01' W 123°09'0 0.1
2017-Oct-12 02:30N 49°01' W 123°09'0 0.0
2017-Oct-12 01:59N 49°01' W 123°09'0 0.0
2017-Oct-12 01:28N 49°01' W 123°09'0 0.0
2017-Oct-12 01:00N 49°02' W 123°09'1 2.1
2017-Oct-12 00:25N 49°01' W 123°10'0 0.2
2017-Oct-12 00:01N 49°01' W 123°10'0 0.0
2017-Oct-11 23:30N 49°01' W 123°10'0 0.0
2017-Oct-11 23:00N 49°01' W 123°10'0 0.0
2017-Oct-11 22:31N 49°01' W 123°10'0 0.0
2017-Oct-11 21:59N 49°01' W 123°10'0 0.0
2017-Oct-11 21:30N 49°01' W 123°10'0 0.0
2017-Oct-11 21:01N 49°01' W 123°10'0 0.0
2017-Oct-11 20:30N 49°01' W 123°10'0 0.0
2017-Oct-11 20:00N 49°01' W 123°10'0 0.0
2017-Oct-11 19:31N 49°01' W 123°10'0 0.0
2017-Oct-11 19:00N 49°01' W 123°10'0 0.0
2017-Oct-11 18:30N 49°01' W 123°10'0 0.0
2017-Oct-11 17:57N 49°01' W 123°10'0 0.0
2017-Oct-11 17:30N 49°01' W 123°10'0 0.0
2017-Oct-11 17:00N 49°01' W 123°10'12 0.7
2017-Oct-11 00:00N 49°12' W 123°04'0 0.0
2017-Oct-10 23:30N 49°12' W 123°04'0 0.0
2017-Oct-10 23:00N 49°12' W 123°04'0 0.0
2017-Oct-10 22:30N 49°12' W 123°04'0 0.0
2017-Oct-10 22:00N 49°12' W 123°04'0 0.0
2017-Oct-10 21:30N 49°12' W 123°04'0 0.0
2017-Oct-10 21:00N 49°12' W 123°04'0 0.0
2017-Oct-10 20:30N 49°12' W 123°04'0 0.0
2017-Oct-10 20:00N 49°12' W 123°04'0 0.0
2017-Oct-10 19:30N 49°12' W 123°04'0 0.0
2017-Oct-10 19:00N 49°12' W 123°04'0 0.0
2017-Oct-10 18:30N 49°12' W 123°04'0 0.2
2017-Oct-10 18:00N 49°12' W 123°04'0 0.1
2017-Oct-10 17:30N 49°12' W 123°04'3 5.3
2017-Oct-10 17:00N 49°12' W 123°08'3 5.9
2017-Oct-10 16:30N 49°13' W 123°12'4 8.0
2017-Oct-10 16:00N 49°16' W 123°17'3 6.6
2017-Oct-10 15:30N 49°17' W 123°22'3 6.5
2017-Oct-10 15:00N 49°19' W 123°25'6 6.3
2017-Oct-10 14:00N 49°26' W 123°27'3 7.0
2017-Oct-10 13:30N 49°29' W 123°28'2 3.2
2017-Oct-10 13:00N 49°30' W 123°30'0 0.0
2017-Oct-10 12:30N 49°30' W 123°30'0 0.1
2017-Oct-10 12:00N 49°30' W 123°30'0 0.0
2017-Oct-10 11:29N 49°30' W 123°30'0 0.0
2017-Oct-10 11:00N 49°30' W 123°30'0 0.1
2017-Oct-10 10:30N 49°30' W 123°30'0 0.4
2017-Oct-10 10:00N 49°30' W 123°29'2 3.8
2017-Oct-10 09:30N 49°28' W 123°28'3 6.4
2017-Oct-10 09:00N 49°25' W 123°27'3 5.7
2017-Oct-10 08:30N 49°23' W 123°26'3 6.3
2017-Oct-10 08:00N 49°19' W 123°26'4 7.3
2017-Oct-10 07:30N 49°18' W 123°21'4 7.4
2017-Oct-10 07:00N 49°15' W 123°16'3 6.9
2017-Oct-10 06:30N 49°13' W 123°12'3 5.3
2017-Oct-10 06:00N 49°12' W 123°09'3 5.1
2017-Oct-10 05:30N 49°12' W 123°05'1 1.0
2017-Oct-10 05:00N 49°12' W 123°04'0 0.0
2017-Oct-10 04:30N 49°12' W 123°04'0 0.0
2017-Oct-10 04:00N 49°12' W 123°04'0 0.0
2017-Oct-10 03:30N 49°12' W 123°04'0 0.0
2017-Oct-10 03:00N 49°12' W 123°04'0 0.0
2017-Oct-10 02:30N 49°12' W 123°04'0 0.0
2017-Oct-10 02:00N 49°12' W 123°04'0 0.0
2017-Oct-10 01:30N 49°12' W 123°04'0 0.0
2017-Oct-10 01:00N 49°12' W 123°04'0 0.0
2017-Oct-10 00:30N 49°12' W 123°04'0 0.0
2017-Oct-10 00:00N 49°12' W 123°04'0 0.0
2017-Oct-09 23:30N 49°12' W 123°04'0 0.0
2017-Oct-09 23:00N 49°12' W 123°04'0 0.0
2017-Oct-09 22:30N 49°12' W 123°04'0 0.0
2017-Oct-09 22:00N 49°12' W 123°04'0 0.0
2017-Oct-09 21:30N 49°12' W 123°04'0 0.0
2017-Oct-09 21:00N 49°12' W 123°04'0 0.0
2017-Oct-09 20:30N 49°12' W 123°04'0 0.0
2017-Oct-09 20:00N 49°12' W 123°04'0 0.0
2017-Oct-09 19:30N 49°12' W 123°04'0 0.0
2017-Oct-09 19:00N 49°12' W 123°04'0 0.0
2017-Oct-09 18:30N 49°12' W 123°04'0 0.0
2017-Oct-09 18:00N 49°12' W 123°04'0 0.0
2017-Oct-09 17:30N 49°12' W 123°04'0 0.0
2017-Oct-09 17:00N 49°12' W 123°04'0 0.0
2017-Oct-09 16:30N 49°12' W 123°04'0 0.0
2017-Oct-09 16:00N 49°12' W 123°04'0 0.0
2017-Oct-09 15:30N 49°12' W 123°04'0 0.0
2017-Oct-09 15:00N 49°12' W 123°04'0 0.0
2017-Oct-09 14:30N 49°12' W 123°04'0 0.0
2017-Oct-09 14:00N 49°12' W 123°04'0 0.0
2017-Oct-09 13:30N 49°12' W 123°04'0 0.0
2017-Oct-09 13:00N 49°12' W 123°04'0 0.0
2017-Oct-09 12:30N 49°12' W 123°04'0 0.0
2017-Oct-09 12:00N 49°12' W 123°04'0 0.0
2017-Oct-09 11:30N 49°12' W 123°04'0 0.0
2017-Oct-09 11:00N 49°12' W 123°04'0 0.0
2017-Oct-09 10:30N 49°12' W 123°04'0 0.0
2017-Oct-09 10:00N 49°12' W 123°04'0 0.0
2017-Oct-09 09:30N 49°12' W 123°04'0 0.0
2017-Oct-09 09:00N 49°12' W 123°04'0 0.0
2017-Oct-09 08:30N 49°12' W 123°04'0 0.0
2017-Oct-09 08:00N 49°12' W 123°04'0 0.0
2017-Oct-09 07:30N 49°12' W 123°04'0 0.0
2017-Oct-09 07:00N 49°12' W 123°04'0 0.0
2017-Oct-09 06:30N 49°12' W 123°04'0 0.0
2017-Oct-09 06:00N 49°12' W 123°04'0 0.0
2017-Oct-09 05:30N 49°12' W 123°04'0 0.0
2017-Oct-09 05:00N 49°12' W 123°04'0 0.0
2017-Oct-09 04:30N 49°12' W 123°04'0 0.0
2017-Oct-09 04:00N 49°12' W 123°04'0 0.0
2017-Oct-09 03:30N 49°12' W 123°04'0 0.0
2017-Oct-09 03:00N 49°12' W 123°04'0 0.0
2017-Oct-09 02:30N 49°12' W 123°04'0 0.0
2017-Oct-09 02:00N 49°12' W 123°04'0 0.0
2017-Oct-09 01:30N 49°12' W 123°04'0 0.0
2017-Oct-09 01:00N 49°12' W 123°04'0 0.0
2017-Oct-09 00:30N 49°12' W 123°04'0 0.0
2017-Oct-09 00:00N 49°12' W 123°04'0 0.0
2017-Oct-08 23:30N 49°12' W 123°04'0 0.0
2017-Oct-08 23:00N 49°12' W 123°04'0 0.0
2017-Oct-08 22:30N 49°12' W 123°04'0 0.0
2017-Oct-08 22:00N 49°12' W 123°04'0 0.0
2017-Oct-08 21:30N 49°12' W 123°04'0 0.0
2017-Oct-08 21:00N 49°12' W 123°04'0 0.0
2017-Oct-08 20:30N 49°12' W 123°04'0 0.0
2017-Oct-08 20:00N 49°12' W 123°04'0 0.0
2017-Oct-08 19:30N 49°12' W 123°04'0 0.0
2017-Oct-08 19:00N 49°12' W 123°04'0 0.0
2017-Oct-08 18:30N 49°12' W 123°04'0 0.0
2017-Oct-08 18:00N 49°12' W 123°04'0 0.0
2017-Oct-08 17:30N 49°12' W 123°04'0 0.0
2017-Oct-08 17:00N 49°12' W 123°04'0 0.0
2017-Oct-08 16:30N 49°12' W 123°04'0 0.0
2017-Oct-08 16:00N 49°12' W 123°04'0 0.0
2017-Oct-08 15:30N 49°12' W 123°04'0 0.0
2017-Oct-08 15:00N 49°12' W 123°04'0 0.0
2017-Oct-08 14:30N 49°12' W 123°04'0 0.0
2017-Oct-08 14:00N 49°12' W 123°04'0 0.0
2017-Oct-08 13:30N 49°12' W 123°04'0 0.0
2017-Oct-08 13:00N 49°12' W 123°04'0 0.0
2017-Oct-08 12:30N 49°12' W 123°04'0 0.0
2017-Oct-08 12:00N 49°12' W 123°04'0 0.0
2017-Oct-08 11:30N 49°12' W 123°04'0 0.0
2017-Oct-08 11:00N 49°12' W 123°04'0 0.0
2017-Oct-08 10:30N 49°12' W 123°04'0 0.0
2017-Oct-08 10:00N 49°12' W 123°04'0 0.0
2017-Oct-08 09:30N 49°12' W 123°04'0 0.0
2017-Oct-08 09:00N 49°12' W 123°04'0 0.0
2017-Oct-08 08:30N 49°12' W 123°04'0 0.0
2017-Oct-08 08:00N 49°12' W 123°04'0 0.0
2017-Oct-08 07:30N 49°12' W 123°04'0 0.0
2017-Oct-08 07:00N 49°12' W 123°04'0 0.0
2017-Oct-08 06:30N 49°12' W 123°04'0 0.0
2017-Oct-08 06:00N 49°12' W 123°04'0 0.0
2017-Oct-08 05:30N 49°12' W 123°04'0 0.0
2017-Oct-08 05:00N 49°12' W 123°04'0 0.0
2017-Oct-08 04:30N 49°12' W 123°04'0 0.0
2017-Oct-08 04:00N 49°12' W 123°04'0 0.0
2017-Oct-08 03:30N 49°12' W 123°04'0 0.0
2017-Oct-08 03:00N 49°12' W 123°04'0 0.0
2017-Oct-08 02:30N 49°12' W 123°04'0 0.0
2017-Oct-08 02:00N 49°12' W 123°04'0 0.0
2017-Oct-08 01:30N 49°12' W 123°04'0 0.0
2017-Oct-08 01:00N 49°12' W 123°04'0 0.0
2017-Oct-08 00:30N 49°12' W 123°04'0 0.0
2017-Oct-08 00:00N 49°12' W 123°04'0 0.0
2017-Oct-07 23:30N 49°12' W 123°04'0 0.0
2017-Oct-07 23:00N 49°12' W 123°04'0 0.0
2017-Oct-07 22:30N 49°12' W 123°04'0 0.0
2017-Oct-07 22:00N 49°12' W 123°04'0 0.2
2017-Oct-07 21:30N 49°12' W 123°04'2 3.5
2017-Oct-07 21:00N 49°12' W 123°07'2 4.7
2017-Oct-07 20:30N 49°13' W 123°10'3 5.5
2017-Oct-07 20:00N 49°14' W 123°14'3 5.7
2017-Oct-07 19:30N 49°16' W 123°17'3 6.6
2017-Oct-07 19:00N 49°18' W 123°21'3 7.1
2017-Oct-07 18:30N 49°20' W 123°25'4 7.1
2017-Oct-07 18:00N 49°23' W 123°26'4 7.6
2017-Oct-07 17:30N 49°27' W 123°27'3 6.8
2017-Oct-07 17:00N 49°30' W 123°30'0 0.1
2017-Oct-07 16:30N 49°30' W 123°30'0 0.0
2017-Oct-07 16:00N 49°30' W 123°30'0 0.0
2017-Oct-07 15:30N 49°30' W 123°30'0 0.0
2017-Oct-07 15:00N 49°30' W 123°30'0 0.1
2017-Oct-07 14:30N 49°30' W 123°30'2 4.1
2017-Oct-07 14:00N 49°29' W 123°28'3 6.9
2017-Oct-07 13:30N 49°25' W 123°27'3 6.0
2017-Oct-07 13:00N 49°22' W 123°26'3 6.3
2017-Oct-07 12:30N 49°19' W 123°25'4 7.1
2017-Oct-07 12:00N 49°17' W 123°20'3 6.4
2017-Oct-07 11:30N 49°15' W 123°16'3 5.5
2017-Oct-07 11:00N 49°13' W 123°13'3 6.0
2017-Oct-07 10:30N 49°12' W 123°09'3 6.2
2017-Oct-07 10:00N 49°12' W 123°04'0 0.0
2017-Oct-07 09:30N 49°12' W 123°04'0 0.0
2017-Oct-07 09:00N 49°12' W 123°04'0 0.0
2017-Oct-07 08:30N 49°12' W 123°04'0 0.0
2017-Oct-07 08:00N 49°12' W 123°04'0 0.0
2017-Oct-07 07:30N 49°12' W 123°04'0 0.0
2017-Oct-07 07:00N 49°12' W 123°04'0 0.2
2017-Oct-07 06:30N 49°12' W 123°04'0 0.0
2017-Oct-07 06:00N 49°12' W 123°04'0 0.0
2017-Oct-07 05:30N 49°12' W 123°04'0 0.0
2017-Oct-07 05:00N 49°12' W 123°04'0 0.0
2017-Oct-07 04:30N 49°12' W 123°04'0 0.0
2017-Oct-07 04:00N 49°12' W 123°04'0 0.0
2017-Oct-07 03:30N 49°12' W 123°04'0 0.0
2017-Oct-07 03:00N 49°12' W 123°04'0 0.0
2017-Oct-07 02:30N 49°12' W 123°04'0 0.0
2017-Oct-07 02:00N 49°12' W 123°04'0 0.0
2017-Oct-07 01:30N 49°12' W 123°04'0 0.0
2017-Oct-07 01:00N 49°12' W 123°04'0 0.0
2017-Oct-07 00:30N 49°12' W 123°04'0 0.0
2017-Oct-07 00:00N 49°12' W 123°04'0 0.0
2017-Oct-06 23:30N 49°12' W 123°04'0 0.0
2017-Oct-06 23:00N 49°12' W 123°04'0 0.0
2017-Oct-06 22:30N 49°12' W 123°04'  

Dump ship's entire track history